createdAt,value
2019-04-30T00:00:25.858Z,3.12
2019-04-30T00:05:35.248Z,3.23
2019-04-30T00:10:42.019Z,3.08
2019-04-30T00:15:52.871Z,3.47
2019-04-30T00:20:59.287Z,3.75
2019-04-30T00:26:10.401Z,4.04
2019-04-30T00:31:23.067Z,4.30
2019-04-30T00:36:29.063Z,4.13
2019-04-30T00:41:35.242Z,4.49
2019-04-30T00:46:41.831Z,5.13
2019-04-30T00:51:54.712Z,5.05
2019-04-30T00:57:03.703Z,5.39
2019-04-30T01:02:07.473Z,6.06
2019-04-30T01:07:16.459Z,6.57
2019-04-30T01:12:29.012Z,6.87
2019-04-30T01:17:33.801Z,7.31
2019-04-30T01:22:42.674Z,7.60
2019-04-30T01:27:51.538Z,7.51
2019-04-30T01:33:01.050Z,9.01
2019-04-30T01:38:12.610Z,8.42
2019-04-30T01:43:23.183Z,8.31
2019-04-30T01:48:25.572Z,8.88
2019-04-30T01:53:34.418Z,8.96
2019-04-30T01:58:43.343Z,9.27
2019-04-30T02:03:52.193Z,9.38
2019-04-30T02:09:01.076Z,9.19
2019-04-30T02:14:09.960Z,9.83
2019-04-30T02:19:18.917Z,9.28
2019-04-30T02:24:28.844Z,10.46
2019-04-30T02:29:36.227Z,9.22
2019-04-30T02:34:45.096Z,9.27
2019-04-30T02:39:53.998Z,9.89
2019-04-30T02:45:03.727Z,8.56
2019-04-30T02:50:15.363Z,8.70
2019-04-30T02:55:19.756Z,8.65
2019-04-30T03:00:29.803Z,8.20
2019-04-30T03:05:39.123Z,8.60
2019-04-30T03:10:45.495Z,9.25
2019-04-30T03:15:54.372Z,9.04
2019-04-30T03:21:03.249Z,10.30
2019-04-30T03:26:12.998Z,9.75
2019-04-30T03:31:22.498Z,9.81
2019-04-30T03:36:32.589Z,9.61
2019-04-30T03:41:40.437Z,9.91
2019-04-30T03:46:45.748Z,9.57
2019-04-30T03:51:54.587Z,9.62
2019-04-30T03:57:03.561Z,9.47
2019-04-30T04:02:12.767Z,10.45
2019-04-30T04:07:20.897Z,10.28
2019-04-30T04:12:30.644Z,9.97
2019-04-30T04:17:39.775Z,10.29
2019-04-30T04:22:46.588Z,9.87
2019-04-30T04:27:55.425Z,10.47
2019-04-30T04:33:04.445Z,10.41
2019-04-30T04:38:13.333Z,12.47
2019-04-30T04:43:22.177Z,12.59
2019-04-30T04:48:31.193Z,11.89
2019-04-30T04:53:40.336Z,11.45
2019-04-30T04:58:50.155Z,11.88
2019-04-30T05:03:59.064Z,11.84
2019-04-30T05:09:05.695Z,12.28
2019-04-30T05:14:14.631Z,11.94
2019-04-30T05:19:23.471Z,12.61
2019-04-30T05:24:32.354Z,11.51
2019-04-30T05:29:41.312Z,10.93
2019-04-30T05:34:50.335Z,11.67
2019-04-30T05:40:01.028Z,11.43
2019-04-30T05:45:09.294Z,11.74
2019-04-30T05:50:15.943Z,11.07
2019-04-30T05:55:24.788Z,11.02
2019-04-30T06:00:33.633Z,11.54
2019-04-30T06:05:42.492Z,10.63
2019-04-30T06:10:51.773Z,10.68
2019-04-30T06:16:01.840Z,8.64
2019-04-30T06:21:00.704Z,9.26
2019-04-30T06:26:12.875Z,8.75
2019-04-30T06:31:22.279Z,8.70
2019-04-30T06:36:26.331Z,8.13
2019-04-30T06:41:35.187Z,8.06
2019-04-30T06:46:44.069Z,8.14
2019-04-30T06:51:52.951Z,7.80
2019-04-30T06:57:01.852Z,7.73
2019-04-30T07:02:10.767Z,8.48
2019-04-30T07:07:22.825Z,7.92
2019-04-30T07:12:30.284Z,8.45
2019-04-30T07:17:36.402Z,8.10
2019-04-30T07:22:50.044Z,8.41
2019-04-30T07:27:53.651Z,8.77
2019-04-30T07:33:02.500Z,8.79
2019-04-30T07:38:11.374Z,8.57
2019-04-30T07:43:20.229Z,8.39
2019-04-30T07:48:29.792Z,8.39
2019-04-30T07:53:40.150Z,8.58
2019-04-30T07:58:45.870Z,8.45
2019-04-30T08:03:54.847Z,8.82
2019-04-30T08:09:03.619Z,8.16
2019-04-30T08:14:12.405Z,8.47
2019-04-30T08:19:21.252Z,9.48
2019-04-30T08:24:30.128Z,9.41
2019-04-30T08:29:39.519Z,9.02
2019-04-30T08:34:47.447Z,9.80
2019-04-30T08:39:56.276Z,9.01
2019-04-30T08:45:05.140Z,8.91
2019-04-30T08:50:14.135Z,9.11
2019-04-30T08:55:22.794Z,11.49
2019-04-30T09:00:31.659Z,10.04
2019-04-30T09:05:40.501Z,9.19
2019-04-30T09:10:49.344Z,9.79
2019-04-30T09:15:59.348Z,9.37
2019-04-30T09:21:07.150Z,9.07
2019-04-30T09:26:15.059Z,9.51
2019-04-30T09:31:23.888Z,9.56
2019-04-30T09:36:32.827Z,9.11
2019-04-30T09:41:41.655Z,9.05
2019-04-30T09:46:50.523Z,9.26
2019-04-30T09:51:59.827Z,8.91
2019-04-30T09:57:08.798Z,9.93
2019-04-30T10:02:16.101Z,10.27
2019-04-30T10:07:24.929Z,9.42
2019-04-30T10:12:33.819Z,9.07
2019-04-30T10:17:42.664Z,9.61
2019-04-30T10:22:51.549Z,9.48
2019-04-30T10:28:00.407Z,9.80
2019-04-30T10:33:09.987Z,11.14
2019-04-30T10:38:19.404Z,10.33
2019-04-30T10:43:26.127Z,11.50
2019-04-30T10:48:34.975Z,13.33
2019-04-30T10:53:43.923Z,13.08
2019-04-30T10:58:52.756Z,12.56
2019-04-30T11:04:01.683Z,13.44
2019-04-30T11:09:10.549Z,11.94
2019-04-30T11:14:19.400Z,11.61
2019-04-30T11:19:29.225Z,11.75
2019-04-30T11:24:44.997Z,11.23
2019-04-30T11:29:45.306Z,11.20
2019-04-30T11:34:53.999Z,10.87
2019-04-30T11:40:02.840Z,11.49
2019-04-30T11:45:11.776Z,11.12
2019-04-30T11:50:20.620Z,11.11
2019-04-30T11:55:29.533Z,10.70
2019-04-30T12:00:39.485Z,10.04
2019-04-30T12:05:48.838Z,9.54
2019-04-30T12:10:55.243Z,9.92
2019-04-30T12:16:04.102Z,10.20
2019-04-30T12:21:12.969Z,10.24
2019-04-30T12:26:21.822Z,10.59
2019-04-30T12:31:30.780Z,9.91
2019-04-30T12:36:39.673Z,9.89
2019-04-30T12:41:48.918Z,10.68
2019-04-30T12:46:58.629Z,10.51
2019-04-30T12:52:05.336Z,10.82
2019-04-30T12:57:14.193Z,10.35
2019-04-30T13:02:23.077Z,10.75
2019-04-30T13:07:32.408Z,10.33
2019-04-30T13:12:40.737Z,10.35
2019-04-30T13:17:50.125Z,9.49
2019-04-30T13:22:58.768Z,10.40
2019-04-30T13:28:05.426Z,11.12
2019-04-30T13:33:14.276Z,11.47
2019-04-30T13:38:23.127Z,10.86
2019-04-30T13:43:32.001Z,10.50
2019-04-30T13:48:40.830Z,11.29
2019-04-30T13:53:49.714Z,11.47
2019-04-30T13:58:58.540Z,11.07
2019-04-30T14:04:08.880Z,11.81
2019-04-30T14:09:15.790Z,11.03
2019-04-30T14:14:24.662Z,11.63
2019-04-30T14:19:33.539Z,10.61
2019-04-30T14:24:42.423Z,10.97
2019-04-30T14:29:51.297Z,12.29
2019-04-30T14:35:00.151Z,12.27
2019-04-30T14:40:12.313Z,13.00
2019-04-30T14:45:17.771Z,11.40
2019-04-30T14:50:25.764Z,12.76
2019-04-30T14:55:34.624Z,11.47
2019-04-30T15:00:43.508Z,11.62
2019-04-30T15:05:52.361Z,11.53
2019-04-30T15:11:01.248Z,11.67
2019-04-30T15:16:10.085Z,11.29
2019-04-30T15:21:18.932Z,11.06
2019-04-30T15:26:28.726Z,11.18
2019-04-30T15:31:36.184Z,11.03
2019-04-30T15:36:45.022Z,10.33
2019-04-30T15:41:53.912Z,10.46
2019-04-30T15:47:02.907Z,10.18
2019-04-30T15:52:11.769Z,9.92
2019-04-30T15:57:20.632Z,9.46
2019-04-30T16:02:29.483Z,10.07
2019-04-30T16:07:40.578Z,10.78
2019-04-30T16:12:48.602Z,10.25
2019-04-30T16:17:55.185Z,10.35
2019-04-30T16:23:04.012Z,9.57
2019-04-30T16:28:12.905Z,10.68
2019-04-30T16:33:21.773Z,10.63
2019-04-30T16:38:30.625Z,10.10
2019-04-30T16:43:39.542Z,10.29
2019-04-30T16:48:49.297Z,9.94
2019-04-30T16:53:58.506Z,10.01
2019-04-30T16:59:05.258Z,9.79
2019-04-30T17:04:14.084Z,9.51
2019-04-30T17:09:22.975Z,10.11
2019-04-30T17:14:31.847Z,9.45
2019-04-30T17:19:40.754Z,8.93
2019-04-30T17:24:49.601Z,9.61
2019-04-30T17:29:58.443Z,9.63
2019-04-30T17:35:09.062Z,9.32
2019-04-30T17:40:15.684Z,8.99
2019-04-30T17:45:24.622Z,9.22
2019-04-30T17:50:33.460Z,9.13
2019-04-30T17:55:42.346Z,10.01
2019-04-30T18:00:51.192Z,11.11
2019-04-30T18:06:00.059Z,10.49
2019-04-30T18:11:08.893Z,9.66
2019-04-30T18:16:18.751Z,9.91
2019-04-30T18:21:26.162Z,9.18
2019-04-30T18:26:37.535Z,9.52
2019-04-30T18:31:43.428Z,10.73
2019-04-30T18:36:52.335Z,9.95
2019-04-30T18:42:01.189Z,9.64
2019-04-30T18:47:10.115Z,10.42
2019-04-30T18:52:18.984Z,9.71
2019-04-30T18:57:27.870Z,9.63
2019-04-30T19:02:38.332Z,10.79
2019-04-30T19:07:45.141Z,9.51
2019-04-30T19:12:56.132Z,10.06
2019-04-30T19:18:02.392Z,9.90
2019-04-30T19:23:11.247Z,9.68
2019-04-30T19:28:20.101Z,8.88
2019-04-30T19:33:31.072Z,9.42
2019-04-30T19:38:37.385Z,9.53
2019-04-30T19:43:46.236Z,10.28
2019-04-30T19:48:55.102Z,9.84
2019-04-30T19:54:03.995Z,9.63
2019-04-30T19:59:12.863Z,9.34
2019-04-30T20:04:32.627Z,10.25
2019-04-30T20:09:30.105Z,10.17
2019-04-30T20:14:39.171Z,10.52
2019-04-30T20:19:48.949Z,10.74
2019-04-30T20:24:56.250Z,10.35
2019-04-30T20:30:05.061Z,10.24
2019-04-30T20:35:13.920Z,10.22
2019-04-30T20:40:22.792Z,10.09
2019-04-30T20:45:31.701Z,10.24
2019-04-30T20:50:40.517Z,10.56
2019-04-30T20:55:49.617Z,10.84
2019-04-30T21:01:03.443Z,10.55
2019-04-30T21:06:08.702Z,10.75
2019-04-30T21:11:15.085Z,10.29
2019-04-30T21:16:23.930Z,9.67
2019-04-30T21:21:32.767Z,9.66
2019-04-30T21:26:41.612Z,9.41
2019-04-30T21:31:50.471Z,10.57
2019-04-30T21:36:59.699Z,9.80
2019-04-30T21:42:09.305Z,9.72
2019-04-30T21:47:16.131Z,9.61
2019-04-30T21:52:24.976Z,9.80
2019-04-30T21:57:33.829Z,8.71
2019-04-30T22:02:42.677Z,10.07
2019-04-30T22:07:51.528Z,7.90
2019-04-30T22:13:00.395Z,8.74
2019-04-30T22:18:09.216Z,8.52
2019-04-30T22:23:18.065Z,8.69
2019-04-30T22:28:26.965Z,8.92
2019-04-30T22:33:35.879Z,9.25
2019-04-30T22:38:44.724Z,8.73
2019-04-30T22:43:53.624Z,8.72
2019-04-30T22:49:02.529Z,8.65
2019-04-30T22:54:11.430Z,8.76
2019-04-30T22:59:20.289Z,8.87
2019-04-30T23:04:29.200Z,7.89
2019-04-30T23:09:38.096Z,7.78
2019-04-30T23:14:46.922Z,8.39
2019-04-30T23:19:55.774Z,8.14
2019-04-30T23:25:04.733Z,7.87
2019-04-30T23:30:13.628Z,7.61
2019-04-30T23:35:22.480Z,7.60
2019-04-30T23:40:31.344Z,7.94
2019-04-30T23:45:40.376Z,8.30
2019-04-30T23:50:49.228Z,8.30
2019-04-30T23:55:58.105Z,7.45
